Aérodrome :
LOGIN :

S'inscrire | Disclaimer

   EN    FR    IT 

 










Légende :    VFR   VFR Marginal   IFR   IFR Intensif   IFR Très Intensif
Visi : 
Plafond : 
>= 8 km
>= 3000ft
5 à 8 km
1000 à 3000 ft
1500m à 5 km
500 à 1000 ft
800 à 1500m
200 à 500 ft
< 800m
< 200 ft
Symboles :   Orages  Brouillard  Fortes neiges  Fortes précipitations  Vent > 20 kt
SIGMETs :   Divers  Orages  Givrage  Turbulence  Onde Orograph.  Cendres Volcan.






- Altitude de l'aérodrome : 80 ft
- Code IATA : LPL


EGGP - Liverpool John Lennon

DERNIER METAR :
  • 040820Z 29014KT 250V340 9999 SCT020 SCT032 12/08 Q1005

METARs EXPIRÉS :
  • 040750Z 32006KT 220V350 9999 -RA SCT012 BKN016 12/09 Q1005
  • 040720Z 18005KT 9999 SCT030 BKN034 10/07 Q1006
  • 040650Z 19005KT 160V230 9999 FEW028 SCT036 10/07 Q1006
  • 040620Z 19005KT 9999 FEW028 SCT036 10/06 Q1006
  • 040550Z 18004KT 9999 FEW028 SCT036 10/07 Q1006

TAF TAF EGGP
Valide du 04 à 06h jusqu'au 05 à 06h UTC


040457Z 0406/0506 30005KT 9999 SCT035
TEMPO 0409/0418 6000 SHRA BKN014
PROB30
TEMPO 0418/0506 6000 SHRA BKN014
ATIS : +44 151 907 2000 (option 5 or ext 5150)
Météo : +44 871 750 5150



MET'MAP, la Météo Aéronautique d'un coup d'oeil ! - Copyright ORBIFLY Décembre 2007 - Disclaimer

ORBIFLY MET'MAP TEAM :

Programmation & Développement : Alexandra Zaïnal
Sur une idée originale de : Baudouin d'Aumeries
Assistance à la programmation : Marc-Olivier Méhu
Soutien technique & logistique : Manuel Goepfert

Contact : metmap@orbifly.com




SOURCES & CREDITS :

   NOAA